sensor_id;sensor_type;location;lat;lon;timestamp;temperature;humidity
31661;DHT22;18267;52.234;7.444;2022-11-15T00:00:17;9.30;99.90
31661;DHT22;18267;52.234;7.444;2022-11-15T00:02:43;9.30;99.90
31661;DHT22;18267;52.234;7.444;2022-11-15T00:05:08;9.30;99.90
31661;DHT22;18267;52.234;7.444;2022-11-15T00:07:34;9.30;99.90
31661;DHT22;18267;52.234;7.444;2022-11-15T00:10:00;9.30;99.90
31661;DHT22;18267;52.234;7.444;2022-11-15T00:12:27;9.30;99.90
31661;DHT22;18267;52.234;7.444;2022-11-15T00:14:53;9.40;99.90
31661;DHT22;18267;52.234;7.444;2022-11-15T00:17:18;9.30;99.90
31661;DHT22;18267;52.234;7.444;2022-11-15T00:19:44;9.30;99.90
31661;DHT22;18267;52.234;7.444;2022-11-15T00:22:10;9.30;99.90
31661;DHT22;18267;52.234;7.444;2022-11-15T00:24:35;9.30;99.90
31661;DHT22;18267;52.234;7.444;2022-11-15T00:27:01;9.30;99.90
31661;DHT22;18267;52.234;7.444;2022-11-15T00:29:27;9.40;99.90
31661;DHT22;18267;52.234;7.444;2022-11-15T00:31:53;9.40;99.90
31661;DHT22;18267;52.234;7.444;2022-11-15T00:34:18;9.40;99.90
31661;DHT22;18267;52.234;7.444;2022-11-15T00:36:44;9.40;99.90
31661;DHT22;18267;52.234;7.444;2022-11-15T00:39:10;9.50;99.90
31661;DHT22;18267;52.234;7.444;2022-11-15T00:41:35;9.60;99.90
31661;DHT22;18267;52.234;7.444;2022-11-15T00:44:01;9.60;99.90
31661;DHT22;18267;52.234;7.444;2022-11-15T00:46:26;9.60;99.90
31661;DHT22;18267;52.234;7.444;2022-11-15T00:48:52;9.60;99.90
31661;DHT22;18267;52.234;7.444;2022-11-15T00:51:17;9.60;99.90
31661;DHT22;18267;52.234;7.444;2022-11-15T00:53:43;9.60;99.90
31661;DHT22;18267;52.234;7.444;2022-11-15T00:56:08;9.60;99.90
31661;DHT22;18267;52.234;7.444;2022-11-15T00:58:34;9.60;99.90
31661;DHT22;18267;52.234;7.444;2022-11-15T01:01:11;9.60;99.90
31661;DHT22;18267;52.234;7.444;2022-11-15T01:03:38;9.60;99.90
31661;DHT22;18267;52.234;7.444;2022-11-15T01:06:04;9.70;99.90
31661;DHT22;18267;52.234;7.444;2022-11-15T01:08:30;9.60;99.90
31661;DHT22;18267;52.234;7.444;2022-11-15T01:11:03;9.60;99.90
31661;DHT22;18267;52.234;7.444;2022-11-15T01:13:31;9.60;99.90
31661;DHT22;18267;52.234;7.444;2022-11-15T01:15:57;9.60;99.90
31661;DHT22;18267;52.234;7.444;2022-11-15T01:18:23;9.60;99.90
31661;DHT22;18267;52.234;7.444;2022-11-15T01:20:48;9.60;99.90
31661;DHT22;18267;52.234;7.444;2022-11-15T01:23:15;9.70;99.90
31661;DHT22;18267;52.234;7.444;2022-11-15T01:25:40;9.70;99.90
31661;DHT22;18267;52.234;7.444;2022-11-15T01:28:06;9.70;99.90
31661;DHT22;18267;52.234;7.444;2022-11-15T01:30:31;9.70;99.90
31661;DHT22;18267;52.234;7.444;2022-11-15T01:32:57;9.70;99.90
31661;DHT22;18267;52.234;7.444;2022-11-15T01:35:22;9.70;99.90
31661;DHT22;18267;52.234;7.444;2022-11-15T01:37:48;9.60;99.90
31661;DHT22;18267;52.234;7.444;2022-11-15T01:40:14;9.60;99.90
31661;DHT22;18267;52.234;7.444;2022-11-15T01:42:39;9.60;99.90
31661;DHT22;18267;52.234;7.444;2022-11-15T01:45:05;9.60;99.90
31661;DHT22;18267;52.234;7.444;2022-11-15T01:47:35;9.60;99.90
31661;DHT22;18267;52.234;7.444;2022-11-15T01:50:08;9.60;99.90
31661;DHT22;18267;52.234;7.444;2022-11-15T01:52:35;9.70;99.90
31661;DHT22;18267;52.234;7.444;2022-11-15T01:55:08;9.80;99.90
31661;DHT22;18267;52.234;7.444;2022-11-15T01:57:34;9.70;99.90
31661;DHT22;18267;52.234;7.444;2022-11-15T02:00:02;9.70;99.90
31661;DHT22;18267;52.234;7.444;2022-11-15T02:02:28;9.70;99.90
31661;DHT22;18267;52.234;7.444;2022-11-15T02:04:54;9.60;99.90
31661;DHT22;18267;52.234;7.444;2022-11-15T02:07:21;9.70;99.90
31661;DHT22;18267;52.234;7.444;2022-11-15T02:09:48;9.70;99.90
31661;DHT22;18267;52.234;7.444;2022-11-15T02:12:17;9.80;99.90
31661;DHT22;18267;52.234;7.444;2022-11-15T02:14:47;9.80;99.90
31661;DHT22;18267;52.234;7.444;2022-11-15T02:17:34;9.90;99.90
31661;DHT22;18267;52.234;7.444;2022-11-15T02:23:31;9.70;99.90
31661;DHT22;18267;52.234;7.444;2022-11-15T02:29:13;9.80;99.90
31661;DHT22;18267;52.234;7.444;2022-11-15T02:31:58;9.80;99.90
31661;DHT22;18267;52.234;7.444;2022-11-15T02:35:02;9.70;99.90
31661;DHT22;18267;52.234;7.444;2022-11-15T02:40:27;9.70;99.90
31661;DHT22;18267;52.234;7.444;2022-11-15T02:43:00;9.70;99.90
31661;DHT22;18267;52.234;7.444;2022-11-15T02:45:48;9.70;99.90
31661;DHT22;18267;52.234;7.444;2022-11-15T02:48:17;9.70;99.90
31661;DHT22;18267;52.234;7.444;2022-11-15T02:50:43;9.70;99.90
31661;DHT22;18267;52.234;7.444;2022-11-15T02:53:09;9.70;99.90
31661;DHT22;18267;52.234;7.444;2022-11-15T02:55:54;9.80;99.90
31661;DHT22;18267;52.234;7.444;2022-11-15T02:58:32;9.80;99.90
31661;DHT22;18267;52.234;7.444;2022-11-15T03:03:45;9.80;99.90
31661;DHT22;18267;52.234;7.444;2022-11-15T03:11:56;9.80;99.90
31661;DHT22;18267;52.234;7.444;2022-11-15T03:14:33;9.80;99.90
31661;DHT22;18267;52.234;7.444;2022-11-15T03:20:09;9.80;99.90
31661;DHT22;18267;52.234;7.444;2022-11-15T03:22:43;9.80;99.90
31661;DHT22;18267;52.234;7.444;2022-11-15T03:25:13;9.80;99.90
31661;DHT22;18267;52.234;7.444;2022-11-15T03:27:44;9.90;99.90
31661;DHT22;18267;52.234;7.444;2022-11-15T03:30:13;9.90;99.90
31661;DHT22;18267;52.234;7.444;2022-11-15T03:32:43;10.00;99.90
31661;DHT22;18267;52.234;7.444;2022-11-15T03:35:13;10.00;99.90
31661;DHT22;18267;52.234;7.444;2022-11-15T03:40:25;10.00;99.90
31661;DHT22;18267;52.234;7.444;2022-11-15T03:43:32;10.00;99.90
31661;DHT22;18267;52.234;7.444;2022-11-15T03:46:06;9.90;99.90
31661;DHT22;18267;52.234;7.444;2022-11-15T03:48:47;9.90;99.90
31661;DHT22;18267;52.234;7.444;2022-11-15T03:51:14;10.00;99.90
31661;DHT22;18267;52.234;7.444;2022-11-15T03:53:41;10.00;99.90
31661;DHT22;18267;52.234;7.444;2022-11-15T03:56:06;10.00;99.90
31661;DHT22;18267;52.234;7.444;2022-11-15T03:58:32;10.00;99.90
31661;DHT22;18267;52.234;7.444;2022-11-15T04:00:57;10.10;99.90
31661;DHT22;18267;52.234;7.444;2022-11-15T04:03:25;10.10;99.90
31661;DHT22;18267;52.234;7.444;2022-11-15T04:05:50;10.10;99.90
31661;DHT22;18267;52.234;7.444;2022-11-15T04:08:16;10.20;99.90
31661;DHT22;18267;52.234;7.444;2022-11-15T04:10:41;10.20;99.90
31661;DHT22;18267;52.234;7.444;2022-11-15T04:13:07;10.30;99.90
31661;DHT22;18267;52.234;7.444;2022-11-15T04:15:33;10.40;99.90
31661;DHT22;18267;52.234;7.444;2022-11-15T04:17:58;10.40;99.90
31661;DHT22;18267;52.234;7.444;2022-11-15T04:20:29;10.30;99.90
31661;DHT22;18267;52.234;7.444;2022-11-15T04:23:19;10.30;99.90
31661;DHT22;18267;52.234;7.444;2022-11-15T04:26:05;10.30;99.90
31661;DHT22;18267;52.234;7.444;2022-11-15T04:28:32;10.30;99.90
31661;DHT22;18267;52.234;7.444;2022-11-15T04:30:58;10.30;99.90
31661;DHT22;18267;52.234;7.444;2022-11-15T04:33:24;10.40;99.90
31661;DHT22;18267;52.234;7.444;2022-11-15T04:35:50;10.30;99.90
31661;DHT22;18267;52.234;7.444;2022-11-15T04:38:34;10.20;99.90
31661;DHT22;18267;52.234;7.444;2022-11-15T04:41:00;10.30;99.90
31661;DHT22;18267;52.234;7.444;2022-11-15T04:43:26;10.30;99.90
31661;DHT22;18267;52.234;7.444;2022-11-15T04:45:52;10.30;99.90
31661;DHT22;18267;52.234;7.444;2022-11-15T04:48:17;10.30;99.90
31661;DHT22;18267;52.234;7.444;2022-11-15T04:50:43;10.30;99.90
31661;DHT22;18267;52.234;7.444;2022-11-15T04:53:08;10.20;99.90
31661;DHT22;18267;52.234;7.444;2022-11-15T04:55:34;10.30;99.90
31661;DHT22;18267;52.234;7.444;2022-11-15T04:58:01;10.30;99.90
31661;DHT22;18267;52.234;7.444;2022-11-15T05:00:28;10.30;99.90
31661;DHT22;18267;52.234;7.444;2022-11-15T05:02:55;10.30;99.90
31661;DHT22;18267;52.234;7.444;2022-11-15T05:05:39;10.30;99.90
31661;DHT22;18267;52.234;7.444;2022-11-15T05:08:05;10.30;99.90
31661;DHT22;18267;52.234;7.444;2022-11-15T05:10:30;10.30;99.90
31661;DHT22;18267;52.234;7.444;2022-11-15T05:12:56;10.30;99.90
31661;DHT22;18267;52.234;7.444;2022-11-15T05:15:21;10.30;99.90
31661;DHT22;18267;52.234;7.444;2022-11-15T05:17:47;10.40;99.90
31661;DHT22;18267;52.234;7.444;2022-11-15T05:20:13;10.40;99.90
31661;DHT22;18267;52.234;7.444;2022-11-15T05:22:39;10.40;99.90
31661;DHT22;18267;52.234;7.444;2022-11-15T05:25:05;10.40;99.90
31661;DHT22;18267;52.234;7.444;2022-11-15T05:27:31;10.40;99.90
31661;DHT22;18267;52.234;7.444;2022-11-15T05:29:57;10.40;99.90
31661;DHT22;18267;52.234;7.444;2022-11-15T05:32:23;10.50;99.90
31661;DHT22;18267;52.234;7.444;2022-11-15T05:34:49;10.50;99.90
31661;DHT22;18267;52.234;7.444;2022-11-15T05:37:15;10.50;99.90
31661;DHT22;18267;52.234;7.444;2022-11-15T05:39:41;10.60;99.90
31661;DHT22;18267;52.234;7.444;2022-11-15T05:42:11;10.50;99.90
31661;DHT22;18267;52.234;7.444;2022-11-15T05:44:39;10.50;99.90
31661;DHT22;18267;52.234;7.444;2022-11-15T05:47:06;10.50;99.90
31661;DHT22;18267;52.234;7.444;2022-11-15T05:49:35;10.50;99.90
31661;DHT22;18267;52.234;7.444;2022-11-15T05:52:04;10.50;99.90
31661;DHT22;18267;52.234;7.444;2022-11-15T05:54:30;10.50;99.90
31661;DHT22;18267;52.234;7.444;2022-11-15T05:56:56;10.50;99.90
31661;DHT22;18267;52.234;7.444;2022-11-15T05:59:22;10.50;99.90
31661;DHT22;18267;52.234;7.444;2022-11-15T06:01:48;10.50;99.90
31661;DHT22;18267;52.234;7.444;2022-11-15T06:04:13;10.50;99.90
31661;DHT22;18267;52.234;7.444;2022-11-15T06:06:39;10.50;99.90
31661;DHT22;18267;52.234;7.444;2022-11-15T06:09:04;10.50;99.90
31661;DHT22;18267;52.234;7.444;2022-11-15T06:11:30;10.50;99.90
31661;DHT22;18267;52.234;7.444;2022-11-15T06:13:56;10.60;99.90
31661;DHT22;18267;52.234;7.444;2022-11-15T06:16:22;10.60;99.90
31661;DHT22;18267;52.234;7.444;2022-11-15T06:18:47;10.60;99.90
31661;DHT22;18267;52.234;7.444;2022-11-15T06:21:13;10.50;99.90
31661;DHT22;18267;52.234;7.444;2022-11-15T06:23:38;10.60;99.90
31661;DHT22;18267;52.234;7.444;2022-11-15T06:26:04;10.60;99.90
31661;DHT22;18267;52.234;7.444;2022-11-15T06:28:31;10.60;99.90
31661;DHT22;18267;52.234;7.444;2022-11-15T06:31:03;10.60;99.90
31661;DHT22;18267;52.234;7.444;2022-11-15T06:33:28;10.60;99.90
31661;DHT22;18267;52.234;7.444;2022-11-15T06:35:54;10.70;99.90
31661;DHT22;18267;52.234;7.444;2022-11-15T06:38:19;10.70;99.90
31661;DHT22;18267;52.234;7.444;2022-11-15T06:40:45;10.70;99.90
31661;DHT22;18267;52.234;7.444;2022-11-15T06:43:10;10.70;99.90
31661;DHT22;18267;52.234;7.444;2022-11-15T06:45:36;10.70;99.90
31661;DHT22;18267;52.234;7.444;2022-11-15T06:48:02;10.70;99.90
31661;DHT22;18267;52.234;7.444;2022-11-15T06:50:27;10.70;99.90
31661;DHT22;18267;52.234;7.444;2022-11-15T06:52:53;10.70;99.90
31661;DHT22;18267;52.234;7.444;2022-11-15T06:55:19;10.70;99.90
31661;DHT22;18267;52.234;7.444;2022-11-15T06:57:50;10.70;99.90
31661;DHT22;18267;52.234;7.444;2022-11-15T07:00:17;10.70;99.90
31661;DHT22;18267;52.234;7.444;2022-11-15T07:02:43;10.70;99.90
31661;DHT22;18267;52.234;7.444;2022-11-15T07:05:08;10.70;99.90
31661;DHT22;18267;52.234;7.444;2022-11-15T07:07:34;10.70;99.90
31661;DHT22;18267;52.234;7.444;2022-11-15T07:09:59;10.70;99.90
31661;DHT22;18267;52.234;7.444;2022-11-15T07:12:25;10.80;99.90
31661;DHT22;18267;52.234;7.444;2022-11-15T07:14:50;10.80;99.90
31661;DHT22;18267;52.234;7.444;2022-11-15T07:17:16;10.80;99.90
31661;DHT22;18267;52.234;7.444;2022-11-15T07:19:41;10.80;99.90
31661;DHT22;18267;52.234;7.444;2022-11-15T07:22:07;10.90;99.90
31661;DHT22;18267;52.234;7.444;2022-11-15T07:24:32;10.90;99.90
31661;DHT22;18267;52.234;7.444;2022-11-15T07:26:58;10.90;99.90
31661;DHT22;18267;52.234;7.444;2022-11-15T07:29:23;10.90;99.90
31661;DHT22;18267;52.234;7.444;2022-11-15T07:31:49;10.90;99.90
31661;DHT22;18267;52.234;7.444;2022-11-15T07:34:16;10.90;99.90
31661;DHT22;18267;52.234;7.444;2022-11-15T07:36:41;10.90;99.90
31661;DHT22;18267;52.234;7.444;2022-11-15T07:39:07;10.90;99.90
31661;DHT22;18267;52.234;7.444;2022-11-15T07:41:32;11.00;99.90
31661;DHT22;18267;52.234;7.444;2022-11-15T07:43:58;11.00;99.90
31661;DHT22;18267;52.234;7.444;2022-11-15T07:46:23;11.00;99.90
31661;DHT22;18267;52.234;7.444;2022-11-15T07:48:49;11.00;99.90
31661;DHT22;18267;52.234;7.444;2022-11-15T07:51:16;11.00;99.90
31661;DHT22;18267;52.234;7.444;2022-11-15T07:53:42;11.00;99.90
31661;DHT22;18267;52.234;7.444;2022-11-15T07:56:08;11.10;99.90
31661;DHT22;18267;52.234;7.444;2022-11-15T07:58:34;11.00;99.90
31661;DHT22;18267;52.234;7.444;2022-11-15T08:01:03;11.20;99.90
31661;DHT22;18267;52.234;7.444;2022-11-15T08:03:29;11.20;99.90
31661;DHT22;18267;52.234;7.444;2022-11-15T08:05:54;11.20;99.90
31661;DHT22;18267;52.234;7.444;2022-11-15T08:08:20;11.20;99.90
31661;DHT22;18267;52.234;7.444;2022-11-15T08:10:46;11.20;99.90
31661;DHT22;18267;52.234;7.444;2022-11-15T08:13:12;11.20;99.90
31661;DHT22;18267;52.234;7.444;2022-11-15T08:15:38;11.20;99.90
31661;DHT22;18267;52.234;7.444;2022-11-15T08:18:08;11.20;99.90
31661;DHT22;18267;52.234;7.444;2022-11-15T08:20:34;11.30;99.90
31661;DHT22;18267;52.234;7.444;2022-11-15T08:23:02;11.30;99.90
31661;DHT22;18267;52.234;7.444;2022-11-15T08:25:30;11.30;99.90
31661;DHT22;18267;52.234;7.444;2022-11-15T08:27:58;11.30;99.90
31661;DHT22;18267;52.234;7.444;2022-11-15T08:30:24;11.30;99.90
31661;DHT22;18267;52.234;7.444;2022-11-15T08:32:50;11.40;99.90
31661;DHT22;18267;52.234;7.444;2022-11-15T08:35:17;11.40;99.90
31661;DHT22;18267;52.234;7.444;2022-11-15T08:37:43;11.40;99.90
31661;DHT22;18267;52.234;7.444;2022-11-15T08:40:09;11.40;99.90
31661;DHT22;18267;52.234;7.444;2022-11-15T08:42:35;11.40;99.90
31661;DHT22;18267;52.234;7.444;2022-11-15T08:45:00;11.50;99.90
31661;DHT22;18267;52.234;7.444;2022-11-15T08:47:26;11.50;99.90
31661;DHT22;18267;52.234;7.444;2022-11-15T08:49:51;11.50;99.90
31661;DHT22;18267;52.234;7.444;2022-11-15T08:52:17;11.50;99.90
31661;DHT22;18267;52.234;7.444;2022-11-15T08:54:43;11.50;99.90
31661;DHT22;18267;52.234;7.444;2022-11-15T08:57:08;11.60;99.90
31661;DHT22;18267;52.234;7.444;2022-11-15T08:59:35;11.60;99.90
31661;DHT22;18267;52.234;7.444;2022-11-15T09:02:01;11.60;99.90
31661;DHT22;18267;52.234;7.444;2022-11-15T09:04:27;11.70;99.90
31661;DHT22;18267;52.234;7.444;2022-11-15T09:06:52;11.80;99.90
31661;DHT22;18267;52.234;7.444;2022-11-15T09:09:18;11.80;99.90
31661;DHT22;18267;52.234;7.444;2022-11-15T09:11:43;11.80;99.90
31661;DHT22;18267;52.234;7.444;2022-11-15T09:14:11;11.80;99.90
31661;DHT22;18267;52.234;7.444;2022-11-15T09:16:37;11.80;99.90
31661;DHT22;18267;52.234;7.444;2022-11-15T09:19:03;11.90;99.90
31661;DHT22;18267;52.234;7.444;2022-11-15T09:21:29;12.00;99.90
31661;DHT22;18267;52.234;7.444;2022-11-15T09:23:55;12.00;99.90
31661;DHT22;18267;52.234;7.444;2022-11-15T09:26:21;12.00;99.90
31661;DHT22;18267;52.234;7.444;2022-11-15T09:28:46;12.10;99.90
31661;DHT22;18267;52.234;7.444;2022-11-15T09:31:12;12.20;99.90
31661;DHT22;18267;52.234;7.444;2022-11-15T09:33:38;12.20;99.90
31661;DHT22;18267;52.234;7.444;2022-11-15T09:36:06;12.20;99.90
31661;DHT22;18267;52.234;7.444;2022-11-15T09:38:33;12.30;99.90
31661;DHT22;18267;52.234;7.444;2022-11-15T09:47:00;12.30;99.90
31661;DHT22;18267;52.234;7.444;2022-11-15T09:49:29;12.40;99.90
31661;DHT22;18267;52.234;7.444;2022-11-15T09:51:55;12.40;99.90
31661;DHT22;18267;52.234;7.444;2022-11-15T09:54:38;12.50;99.90
31661;DHT22;18267;52.234;7.444;2022-11-15T09:57:12;12.50;99.90
31661;DHT22;18267;52.234;7.444;2022-11-15T10:02:46;12.60;99.90
31661;DHT22;18267;52.234;7.444;2022-11-15T10:05:19;12.60;99.90
31661;DHT22;18267;52.234;7.444;2022-11-15T10:10:44;12.70;99.90
31661;DHT22;18267;52.234;7.444;2022-11-15T10:13:33;12.80;99.90
31661;DHT22;18267;52.234;7.444;2022-11-15T10:24:42;12.90;99.90
31661;DHT22;18267;52.234;7.444;2022-11-15T10:27:16;13.00;99.90
31661;DHT22;18267;52.234;7.444;2022-11-15T10:29:50;13.00;99.90
31661;DHT22;18267;52.234;7.444;2022-11-15T10:32:17;13.10;99.90
31661;DHT22;18267;52.234;7.444;2022-11-15T10:34:43;13.20;99.90
31661;DHT22;18267;52.234;7.444;2022-11-15T10:37:09;13.20;99.90
31661;DHT22;18267;52.234;7.444;2022-11-15T10:39:35;13.20;99.90
31661;DHT22;18267;52.234;7.444;2022-11-15T10:42:30;13.20;99.90
31661;DHT22;18267;52.234;7.444;2022-11-15T10:44:55;13.20;99.90
31661;DHT22;18267;52.234;7.444;2022-11-15T10:47:31;13.20;99.90
31661;DHT22;18267;52.234;7.444;2022-11-15T10:50:25;13.20;99.90
31661;DHT22;18267;52.234;7.444;2022-11-15T10:52:51;13.10;99.90
31661;DHT22;18267;52.234;7.444;2022-11-15T10:57:50;12.90;99.90
31661;DHT22;18267;52.234;7.444;2022-11-15T11:03:24;13.00;99.90
31661;DHT22;18267;52.234;7.444;2022-11-15T11:06:07;13.00;99.90
31661;DHT22;18267;52.234;7.444;2022-11-15T11:08:33;13.10;99.90
31661;DHT22;18267;52.234;7.444;2022-11-15T11:11:01;13.10;99.90
31661;DHT22;18267;52.234;7.444;2022-11-15T11:13:37;13.10;99.90
31661;DHT22;18267;52.234;7.444;2022-11-15T11:16:23;13.10;99.90
31661;DHT22;18267;52.234;7.444;2022-11-15T11:19:17;13.20;99.90
31661;DHT22;18267;52.234;7.444;2022-11-15T11:21:49;13.30;99.90
31661;DHT22;18267;52.234;7.444;2022-11-15T11:24:41;13.30;99.90
31661;DHT22;18267;52.234;7.444;2022-11-15T11:27:17;13.30;99.90
31661;DHT22;18267;52.234;7.444;2022-11-15T11:32:37;13.40;99.90
31661;DHT22;18267;52.234;7.444;2022-11-15T11:35:13;13.30;99.90
31661;DHT22;18267;52.234;7.444;2022-11-15T11:38:06;13.30;99.90
31661;DHT22;18267;52.234;7.444;2022-11-15T11:40:41;13.10;99.90
31661;DHT22;18267;52.234;7.444;2022-11-15T11:43:34;13.20;99.90
31661;DHT22;18267;52.234;7.444;2022-11-15T11:46:09;13.20;99.90
31661;DHT22;18267;52.234;7.444;2022-11-15T11:49:09;13.10;99.90
31661;DHT22;18267;52.234;7.444;2022-11-15T11:54:43;13.30;99.90
31661;DHT22;18267;52.234;7.444;2022-11-15T11:57:34;13.20;99.90
31661;DHT22;18267;52.234;7.444;2022-11-15T12:00:25;13.20;99.90
31661;DHT22;18267;52.234;7.444;2022-11-15T12:05:45;13.10;99.90
31661;DHT22;18267;52.234;7.444;2022-11-15T12:10:47;13.10;99.90
31661;DHT22;18267;52.234;7.444;2022-11-15T12:13:18;13.10;99.90
31661;DHT22;18267;52.234;7.444;2022-11-15T12:15:52;13.20;99.90
31661;DHT22;18267;52.234;7.444;2022-11-15T12:18:18;13.10;99.90
31661;DHT22;18267;52.234;7.444;2022-11-15T12:20:57;13.10;99.90
31661;DHT22;18267;52.234;7.444;2022-11-15T12:23:31;13.20;99.90
31661;DHT22;18267;52.234;7.444;2022-11-15T12:26:08;13.10;99.90
31661;DHT22;18267;52.234;7.444;2022-11-15T12:28:55;13.10;99.90
31661;DHT22;18267;52.234;7.444;2022-11-15T12:34:13;13.10;99.90
31661;DHT22;18267;52.234;7.444;2022-11-15T12:36:42;13.10;99.90
31661;DHT22;18267;52.234;7.444;2022-11-15T12:39:10;13.10;99.90
31661;DHT22;18267;52.234;7.444;2022-11-15T12:41:40;13.10;99.90
31661;DHT22;18267;52.234;7.444;2022-11-15T12:44:12;13.20;99.90
31661;DHT22;18267;52.234;7.444;2022-11-15T13:02:36;13.20;99.90
31661;DHT22;18267;52.234;7.444;2022-11-15T13:17:47;13.30;99.90
31661;DHT22;18267;52.234;7.444;2022-11-15T13:22:47;13.20;99.90
31661;DHT22;18267;52.234;7.444;2022-11-15T13:31:05;13.20;99.90
31661;DHT22;18267;52.234;7.444;2022-11-15T13:33:39;13.20;99.90
31661;DHT22;18267;52.234;7.444;2022-11-15T13:36:21;13.20;99.90
31661;DHT22;18267;52.234;7.444;2022-11-15T13:39:02;13.00;99.90
31661;DHT22;18267;52.234;7.444;2022-11-15T13:41:30;13.00;99.90
31661;DHT22;18267;52.234;7.444;2022-11-15T13:43:57;12.90;99.90
31661;DHT22;18267;52.234;7.444;2022-11-15T13:46:28;12.90;99.90
31661;DHT22;18267;52.234;7.444;2022-11-15T13:48:59;12.90;99.90
31661;DHT22;18267;52.234;7.444;2022-11-15T13:52:09;12.80;99.90
31661;DHT22;18267;52.234;7.444;2022-11-15T13:56:52;12.80;99.90
31661;DHT22;18267;52.234;7.444;2022-11-15T13:59:25;12.70;99.90
31661;DHT22;18267;52.234;7.444;2022-11-15T14:01:58;12.70;99.90
31661;DHT22;18267;52.234;7.444;2022-11-15T14:04:26;12.80;99.90
31661;DHT22;18267;52.234;7.444;2022-11-15T14:06:58;12.90;99.90
31661;DHT22;18267;52.234;7.444;2022-11-15T14:12:31;12.90;99.90
31661;DHT22;18267;52.234;7.444;2022-11-15T14:14:58;12.90;99.90
31661;DHT22;18267;52.234;7.444;2022-11-15T14:19:56;12.70;99.90
31661;DHT22;18267;52.234;7.444;2022-11-15T14:22:27;12.70;99.90
31661;DHT22;18267;52.234;7.444;2022-11-15T14:27:39;12.60;99.90
31661;DHT22;18267;52.234;7.444;2022-11-15T14:30:05;12.60;99.90
31661;DHT22;18267;52.234;7.444;2022-11-15T14:32:47;12.50;99.90
31661;DHT22;18267;52.234;7.444;2022-11-15T14:35:19;12.40;99.90
31661;DHT22;18267;52.234;7.444;2022-11-15T14:37:45;12.40;99.90
31661;DHT22;18267;52.234;7.444;2022-11-15T14:40:18;12.40;99.90
31661;DHT22;18267;52.234;7.444;2022-11-15T14:42:45;12.40;99.90
31661;DHT22;18267;52.234;7.444;2022-11-15T14:45:19;12.30;99.90
31661;DHT22;18267;52.234;7.444;2022-11-15T14:47:45;12.40;99.90
31661;DHT22;18267;52.234;7.444;2022-11-15T14:50:13;12.40;99.90
31661;DHT22;18267;52.234;7.444;2022-11-15T14:52:38;12.40;99.90
31661;DHT22;18267;52.234;7.444;2022-11-15T14:57:37;12.30;99.90
31661;DHT22;18267;52.234;7.444;2022-11-15T15:00:03;12.30;99.90
31661;DHT22;18267;52.234;7.444;2022-11-15T15:02:30;12.20;99.90
31661;DHT22;18267;52.234;7.444;2022-11-15T15:04:56;12.20;99.90
31661;DHT22;18267;52.234;7.444;2022-11-15T15:07:26;12.20;99.90
31661;DHT22;18267;52.234;7.444;2022-11-15T15:09:52;12.20;99.90
31661;DHT22;18267;52.234;7.444;2022-11-15T15:12:19;12.10;99.90
31661;DHT22;18267;52.234;7.444;2022-11-15T15:14:47;12.10;99.90
31661;DHT22;18267;52.234;7.444;2022-11-15T15:17:13;12.10;99.90
31661;DHT22;18267;52.234;7.444;2022-11-15T15:19:39;12.00;99.90
31661;DHT22;18267;52.234;7.444;2022-11-15T15:22:05;12.00;99.90
31661;DHT22;18267;52.234;7.444;2022-11-15T15:24:31;12.00;99.90
31661;DHT22;18267;52.234;7.444;2022-11-15T15:26:56;12.00;99.90
31661;DHT22;18267;52.234;7.444;2022-11-15T15:29:22;12.00;99.90
31661;DHT22;18267;52.234;7.444;2022-11-15T15:31:47;12.00;99.90
31661;DHT22;18267;52.234;7.444;2022-11-15T15:34:13;11.90;99.90
31661;DHT22;18267;52.234;7.444;2022-11-15T15:36:38;11.90;99.90
31661;DHT22;18267;52.234;7.444;2022-11-15T15:39:04;11.90;99.90
31661;DHT22;18267;52.234;7.444;2022-11-15T15:41:29;11.90;99.90
31661;DHT22;18267;52.234;7.444;2022-11-15T15:43:55;11.80;99.90
31661;DHT22;18267;52.234;7.444;2022-11-15T15:46:20;11.80;99.90
31661;DHT22;18267;52.234;7.444;2022-11-15T15:48:46;11.80;99.90
31661;DHT22;18267;52.234;7.444;2022-11-15T15:51:12;11.80;99.90
31661;DHT22;18267;52.234;7.444;2022-11-15T15:53:38;11.70;99.90
31661;DHT22;18267;52.234;7.444;2022-11-15T15:56:04;11.80;99.90
31661;DHT22;18267;52.234;7.444;2022-11-15T15:58:30;11.70;99.90
31661;DHT22;18267;52.234;7.444;2022-11-15T16:00:57;11.70;99.90
31661;DHT22;18267;52.234;7.444;2022-11-15T16:03:22;11.70;99.90
31661;DHT22;18267;52.234;7.444;2022-11-15T16:05:49;11.70;99.90
31661;DHT22;18267;52.234;7.444;2022-11-15T16:08:20;11.60;99.90
31661;DHT22;18267;52.234;7.444;2022-11-15T16:10:46;11.60;99.90
31661;DHT22;18267;52.234;7.444;2022-11-15T16:13:12;11.60;99.90
31661;DHT22;18267;52.234;7.444;2022-11-15T16:15:37;11.50;99.90
31661;DHT22;18267;52.234;7.444;2022-11-15T16:18:04;11.50;99.90
31661;DHT22;18267;52.234;7.444;2022-11-15T16:22:55;11.60;99.90
31661;DHT22;18267;52.234;7.444;2022-11-15T16:25:21;11.60;99.90
31661;DHT22;18267;52.234;7.444;2022-11-15T16:27:46;11.50;99.90
31661;DHT22;18267;52.234;7.444;2022-11-15T16:30:18;11.50;99.90
31661;DHT22;18267;52.234;7.444;2022-11-15T16:32:44;11.60;99.90
31661;DHT22;18267;52.234;7.444;2022-11-15T16:35:11;11.60;99.90
31661;DHT22;18267;52.234;7.444;2022-11-15T16:37:38;11.60;99.90
31661;DHT22;18267;52.234;7.444;2022-11-15T16:40:27;11.70;99.90
31661;DHT22;18267;52.234;7.444;2022-11-15T16:42:53;11.70;99.90
31661;DHT22;18267;52.234;7.444;2022-11-15T16:45:21;11.70;99.90
31661;DHT22;18267;52.234;7.444;2022-11-15T16:47:46;11.70;99.90
31661;DHT22;18267;52.234;7.444;2022-11-15T16:50:22;11.70;99.90
31661;DHT22;18267;52.234;7.444;2022-11-15T16:52:52;11.70;99.90
31661;DHT22;18267;52.234;7.444;2022-11-15T16:55:19;11.70;99.90
31661;DHT22;18267;52.234;7.444;2022-11-15T16:57:44;11.70;99.90
31661;DHT22;18267;52.234;7.444;2022-11-15T17:00:11;11.60;99.90
31661;DHT22;18267;52.234;7.444;2022-11-15T17:02:38;11.60;99.90
31661;DHT22;18267;52.234;7.444;2022-11-15T17:05:03;11.50;99.90
31661;DHT22;18267;52.234;7.444;2022-11-15T17:07:29;11.50;99.90
31661;DHT22;18267;52.234;7.444;2022-11-15T17:09:54;11.60;99.90
31661;DHT22;18267;52.234;7.444;2022-11-15T17:12:20;11.60;99.90
31661;DHT22;18267;52.234;7.444;2022-11-15T17:14:45;11.60;99.90
31661;DHT22;18267;52.234;7.444;2022-11-15T17:17:11;11.70;99.90
31661;DHT22;18267;52.234;7.444;2022-11-15T17:19:37;11.80;99.90
31661;DHT22;18267;52.234;7.444;2022-11-15T17:22:02;11.70;99.90
31661;DHT22;18267;52.234;7.444;2022-11-15T17:24:28;11.70;99.90
31661;DHT22;18267;52.234;7.444;2022-11-15T17:26:53;11.60;99.90
31661;DHT22;18267;52.234;7.444;2022-11-15T17:29:19;11.60;99.90
31661;DHT22;18267;52.234;7.444;2022-11-15T17:31:44;11.60;99.90
31661;DHT22;18267;52.234;7.444;2022-11-15T17:34:10;11.60;99.90
31661;DHT22;18267;52.234;7.444;2022-11-15T17:36:35;11.70;99.90
31661;DHT22;18267;52.234;7.444;2022-11-15T17:39:02;11.70;99.90
31661;DHT22;18267;52.234;7.444;2022-11-15T17:41:28;11.70;99.90